Decoded Metar for KGMU (GREENVILLE in SC, USA) (IATA:GMU) | Meteo·Mobile Aviation Weather
aviador You're here:

KGMU Decoded Metar

GREENVILLE in SC, USA
Report Time2018-08-21 19:53:00
UTC Time2018-08-21 19:56:34
Flight Rules vfr VFR
Wind210° at 12 Gusting to 19 kt
W.Decomp.*RWY 19: 10.9 kt HW 5.1 kt RCW
RWY 28: 5.1 kt HW 10.9 kt LCW
W.Rank210° ranks 9
Current wind is above 210° avg. (6.6)
Visibility9999 m
Phenomena:N/A
Clouds:Broken 033 Hf
Expected CloudBase > 3,200 ft AGL from Temp-Dew spread
Ceiling3,300 ft
Temp30°C (ISA +17)
Dew Point22°C (62% RH)
Heat Index33.2°C
QNH1015 hPa
Density Alt3,268 ft
Elevation1,033 ft
Report Wrong Elevation
Raw Report
METAR KGMU 211953Z 21012G19KT 10SM BKN033 30/22 A2997 RMK AO2 SLP137
T03000222=

Extra information for KGMU:More info

Metar Taf Metar & Taf Last 4 Metars F.Rules Stats Wind Profile Meteogram Temp Stats Airport Information Weather charts Add Link Nearby VenuesMetar ALERT Operation Metar Decoded Social comments

AIRNAV info for KGMU